createdAt,value
2019-06-01T00:00:50.046Z,53.15
2019-06-01T00:05:53.736Z,52.53
2019-06-01T00:10:58.185Z,54.90
2019-06-01T00:16:01.836Z,55.75
2019-06-01T00:21:05.560Z,56.70
2019-06-01T00:26:09.159Z,56.77
2019-06-01T00:31:12.734Z,55.05
2019-06-01T00:36:16.285Z,53.45
2019-06-01T00:41:20.338Z,53.90
2019-06-01T00:46:24.085Z,55.25
2019-06-01T00:51:27.766Z,55.20
2019-06-01T00:56:31.560Z,52.78
2019-06-01T01:01:35.201Z,54.60
2019-06-01T01:06:38.834Z,53.87
2019-06-01T01:11:42.402Z,54.10
2019-06-01T01:16:46.034Z,53.70
2019-06-01T01:21:52.126Z,52.03
2019-06-01T01:26:56.815Z,55.57
2019-06-01T01:32:00.510Z,56.65
2019-06-01T01:37:04.235Z,55.35
2019-06-01T01:42:07.955Z,55.33
2019-06-01T01:47:14.330Z,54.48
2019-06-01T01:52:16.966Z,54.53
2019-06-01T01:57:20.582Z,54.15
2019-06-01T02:02:24.483Z,54.00
2019-06-01T02:07:28.126Z,53.15
2019-06-01T02:12:31.720Z,52.05
2019-06-01T02:17:35.357Z,51.50
2019-06-01T02:22:38.999Z,50.60
2019-06-01T02:27:42.883Z,50.25
2019-06-01T02:32:46.431Z,51.05
2019-06-01T02:37:50.195Z,50.55
2019-06-01T02:42:55.008Z,50.75
2019-06-01T02:47:59.508Z,50.97
2019-06-01T02:53:03.665Z,52.87
2019-06-01T02:58:07.236Z,53.87
2019-06-01T03:03:11.218Z,54.07
2019-06-01T03:08:16.767Z,54.00
2019-06-01T03:13:22.726Z,53.03
2019-06-01T03:18:27.378Z,51.93
2019-06-01T03:23:33.248Z,50.90
2019-06-01T03:28:39.921Z,52.62
2019-06-01T03:33:43.553Z,51.68
2019-06-01T03:38:47.438Z,50.80
2019-06-01T03:43:51.099Z,52.15
2019-06-01T03:48:54.749Z,51.30
2019-06-01T03:53:58.428Z,52.60
2019-06-01T03:59:03.065Z,51.42
2019-06-01T04:04:07.223Z,53.17
2019-06-01T04:09:11.870Z,53.25
2019-06-01T04:14:15.539Z,53.05
2019-06-01T04:19:19.247Z,52.20
2019-06-01T04:24:22.930Z,51.85
2019-06-01T04:29:26.508Z,51.75
2019-06-01T04:34:30.103Z,52.23
2019-06-01T04:39:33.824Z,52.08
2019-06-01T04:44:37.388Z,53.30
2019-06-01T04:49:41.053Z,52.27
2019-06-01T04:54:44.673Z,52.58
2019-06-01T04:59:48.299Z,52.40
2019-06-01T05:04:51.967Z,54.20
2019-06-01T05:09:55.766Z,54.03
2019-06-01T05:14:59.356Z,53.05
2019-06-01T05:20:04.224Z,53.48
2019-06-01T05:25:09.221Z,53.42
2019-06-01T05:30:13.989Z,53.60
2019-06-01T05:35:18.044Z,53.42
2019-06-01T05:40:21.820Z,53.43
2019-06-01T05:45:25.678Z,54.03
2019-06-01T05:50:29.357Z,53.92
2019-06-01T05:55:32.911Z,54.13
2019-06-01T06:00:40.194Z,54.73
2019-06-01T06:05:43.829Z,54.33
2019-06-01T06:10:47.686Z,55.03
2019-06-01T06:15:51.382Z,54.35
2019-06-01T06:20:55.154Z,54.03
2019-06-01T06:25:58.821Z,54.20
2019-06-01T06:31:02.585Z,54.33
2019-06-01T06:36:06.256Z,54.15
2019-06-01T06:41:09.950Z,54.33
2019-06-01T06:46:14.436Z,55.05
2019-06-01T06:51:19.316Z,54.57
2019-06-01T06:56:24.005Z,55.08
2019-06-01T07:01:27.739Z,54.77
2019-06-01T07:06:31.478Z,55.00
2019-06-01T07:11:35.145Z,55.43
2019-06-01T07:16:38.775Z,54.18
2019-06-01T07:21:42.356Z,55.70
2019-06-01T07:26:46.038Z,54.42
2019-06-01T07:31:49.606Z,55.48
2019-06-01T07:36:53.393Z,55.10
2019-06-01T07:41:56.980Z,54.35
2019-06-01T07:47:00.644Z,54.35
2019-06-01T07:52:12.810Z,54.75
2019-06-01T07:57:09.718Z,53.23
2019-06-01T08:02:13.522Z,51.70
2019-06-01T08:07:17.143Z,50.73
2019-06-01T08:12:21.248Z,50.85
2019-06-01T08:17:25.998Z,51.92
2019-06-01T08:22:30.066Z,51.30
2019-06-01T08:27:33.772Z,51.28
2019-06-01T08:32:37.491Z,51.90
2019-06-01T08:37:41.436Z,52.58
2019-06-01T08:42:45.423Z,52.35
2019-06-01T08:47:49.117Z,51.95
2019-06-01T08:52:52.663Z,51.55
2019-06-01T08:57:56.436Z,53.00
2019-06-01T09:03:00.137Z,52.45
2019-06-01T09:08:03.883Z,52.43
2019-06-01T09:13:07.518Z,52.62
2019-06-01T09:18:11.209Z,51.98
2019-06-01T09:23:14.794Z,52.03
2019-06-01T09:28:18.485Z,52.00
2019-06-01T09:33:22.147Z,52.45
2019-06-01T09:38:25.764Z,51.98
2019-06-01T09:43:30.511Z,52.88
2019-06-01T09:48:35.625Z,51.98
2019-06-01T09:53:39.490Z,52.43
2019-06-01T09:58:43.212Z,51.37
2019-06-01T10:03:46.918Z,52.20
2019-06-01T10:08:50.679Z,52.53
2019-06-01T10:13:54.244Z,52.13
2019-06-01T10:18:58.033Z,52.58
2019-06-01T10:24:01.619Z,52.78
2019-06-01T10:29:05.665Z,53.30
2019-06-01T10:34:09.366Z,53.52
2019-06-01T10:39:13.362Z,52.83
2019-06-01T10:44:17.296Z,53.20
2019-06-01T10:49:20.966Z,53.05
2019-06-01T10:54:24.522Z,52.80
2019-06-01T10:59:28.194Z,53.70
2019-06-01T11:04:32.755Z,52.33
2019-06-01T11:09:36.913Z,53.25
2019-06-01T11:14:41.292Z,52.35
2019-06-01T11:19:44.951Z,54.73
2019-06-01T11:24:48.560Z,52.93
2019-06-01T11:29:52.120Z,53.17
2019-06-01T11:34:55.700Z,53.60
2019-06-01T11:39:59.458Z,52.80
2019-06-01T11:45:03.527Z,53.23
2019-06-01T11:50:08.821Z,52.25
2019-06-01T11:55:12.855Z,53.05
2019-06-01T12:00:18.745Z,53.23
2019-06-01T12:05:22.318Z,52.73
2019-06-01T12:10:26.922Z,52.93
2019-06-01T12:15:30.543Z,52.90
2019-06-01T12:20:34.955Z,52.58
2019-06-01T12:25:38.594Z,52.98
2019-06-01T12:30:42.098Z,52.58
2019-06-01T12:35:46.147Z,53.70
2019-06-01T12:40:49.761Z,52.88
2019-06-01T12:46:06.726Z,53.65
2019-06-01T12:50:58.727Z,52.82
2019-06-01T12:56:02.281Z,53.40
2019-06-01T13:01:05.892Z,53.40
2019-06-01T13:06:09.581Z,52.65
2019-06-01T13:11:13.160Z,52.65
2019-06-01T13:16:16.999Z,52.78
2019-06-01T13:21:20.603Z,53.08
2019-06-01T13:26:24.698Z,52.58
2019-06-01T13:31:28.419Z,52.85
2019-06-01T13:36:32.164Z,52.90
2019-06-01T13:41:36.525Z,52.23
2019-06-01T13:46:40.187Z,52.95
2019-06-01T13:51:44.105Z,53.85
2019-06-01T13:56:48.851Z,53.02
2019-06-01T14:01:53.200Z,52.73
2019-06-01T14:06:56.992Z,52.85
2019-06-01T14:12:00.606Z,53.65
2019-06-01T14:17:04.904Z,53.15
2019-06-01T14:22:08.594Z,53.35
2019-06-01T14:27:12.342Z,54.10
2019-06-01T14:32:15.961Z,53.42
2019-06-01T14:37:19.635Z,52.80
2019-06-01T14:42:23.191Z,52.90
2019-06-01T14:47:26.832Z,53.87
2019-06-01T14:52:30.394Z,55.17
2019-06-01T14:57:34.064Z,54.18
2019-06-01T15:02:37.807Z,53.35
2019-06-01T15:07:41.610Z,52.98
2019-06-01T15:12:45.183Z,52.38
2019-06-01T15:17:49.285Z,52.78
2019-06-01T15:22:54.137Z,53.68
2019-06-01T15:27:58.880Z,53.02
2019-06-01T15:33:03.414Z,52.93
2019-06-01T15:38:07.464Z,53.38
2019-06-01T15:43:11.072Z,53.52
2019-06-01T15:48:14.711Z,52.98
2019-06-01T15:53:18.317Z,52.48
2019-06-01T15:58:22.132Z,53.25
2019-06-01T16:03:25.982Z,54.95
2019-06-01T16:08:29.580Z,54.73
2019-06-01T16:13:33.560Z,51.92
2019-06-01T16:18:37.221Z,52.05
2019-06-01T16:23:49.782Z,51.75
2019-06-01T16:28:46.339Z,51.98
2019-06-01T16:33:50.041Z,52.30
2019-06-01T16:38:57.941Z,52.13
2019-06-01T16:43:59.547Z,51.73
2019-06-01T16:49:03.669Z,51.05
2019-06-01T16:54:07.403Z,51.28
2019-06-01T16:59:11.074Z,51.37
2019-06-01T17:04:14.786Z,52.33
2019-06-01T17:09:18.568Z,53.02
2019-06-01T17:14:22.126Z,52.27
2019-06-01T17:19:25.975Z,51.45
2019-06-01T17:24:29.541Z,51.85
2019-06-01T17:29:33.214Z,52.25
2019-06-01T17:34:36.864Z,51.35
2019-06-01T17:39:40.542Z,52.85
2019-06-01T17:44:44.189Z,52.70
2019-06-01T17:49:47.890Z,52.25
2019-06-01T17:54:51.606Z,52.03
2019-06-01T17:59:55.312Z,52.65
2019-06-01T18:04:59.054Z,51.63
2019-06-01T18:10:04.600Z,50.95
2019-06-01T18:15:08.621Z,51.25
2019-06-01T18:20:12.982Z,52.13
2019-06-01T18:25:19.341Z,51.02
2019-06-01T18:35:26.787Z,50.33
2019-06-01T18:40:31.121Z,50.12
2019-06-01T18:45:35.352Z,50.48
2019-06-01T18:50:39.661Z,50.28
2019-06-01T18:55:46.294Z,50.70
2019-06-01T19:05:53.485Z,50.45
2019-06-01T19:10:57.518Z,54.35
2019-06-01T19:16:01.107Z,52.23
2019-06-01T19:21:04.896Z,50.58
2019-06-01T19:26:11.880Z,51.18
2019-06-01T19:31:15.194Z,52.20
2019-06-01T19:36:19.046Z,51.80
2019-06-01T19:41:22.647Z,52.33
2019-06-01T19:46:26.258Z,52.15
2019-06-01T19:51:29.862Z,51.30
2019-06-01T19:56:33.535Z,50.40
2019-06-01T20:01:37.231Z,50.17
2019-06-01T20:06:40.832Z,50.90
2019-06-01T20:12:00.573Z,51.15
2019-06-01T20:16:49.789Z,52.33
2019-06-01T20:21:53.471Z,51.90
2019-06-01T20:26:57.416Z,52.65
2019-06-01T20:32:00.976Z,51.02
2019-06-01T20:37:04.579Z,50.75
2019-06-01T20:42:20.991Z,51.70
2019-06-01T20:47:14.805Z,53.05
2019-06-01T20:52:18.991Z,53.52
2019-06-01T20:57:23.987Z,53.30
2019-06-01T21:02:27.790Z,53.80
2019-06-01T21:07:31.463Z,52.00
2019-06-01T21:12:44.917Z,52.73
2019-06-01T21:17:40.350Z,52.30
2019-06-01T21:22:43.956Z,52.15
2019-06-01T21:27:47.721Z,52.93
2019-06-01T21:32:51.349Z,55.12
2019-06-01T21:37:55.007Z,65.55
2019-06-01T21:43:12.579Z,63.00
2019-06-01T21:48:04.130Z,60.12
2019-06-01T21:53:07.755Z,57.98
2019-06-01T21:58:11.359Z,57.88
2019-06-01T22:03:15.094Z,56.85
2019-06-01T22:08:19.142Z,56.08
2019-06-01T22:13:25.340Z,54.40
2019-06-01T22:18:28.157Z,54.63
2019-06-01T22:23:31.894Z,52.93
2019-06-01T22:28:35.484Z,51.35
2019-06-01T22:33:39.088Z,51.77
2019-06-01T22:38:42.743Z,50.75
2019-06-01T22:43:47.247Z,50.52
2019-06-01T22:48:51.336Z,50.67
2019-06-01T22:53:54.910Z,50.25
2019-06-01T22:58:58.599Z,51.05
2019-06-01T23:04:02.247Z,50.15
2019-06-01T23:09:08.143Z,50.55
2019-06-01T23:14:11.705Z,50.83
2019-06-01T23:19:15.445Z,50.10
2019-06-01T23:24:19.017Z,49.70
2019-06-01T23:29:22.647Z,50.52
2019-06-01T23:34:26.691Z,50.33
2019-06-01T23:39:30.769Z,49.18
2019-06-01T23:44:35.155Z,49.48
2019-06-01T23:49:39.103Z,49.75
2019-06-01T23:54:42.899Z,49.05
2019-06-01T23:59:46.538Z,50.30
